LOWG/GRZ METAR and TAF weather

Enter ICAO airport designator
Station Type Date Time Source
LOWG METAR 2020/07/05 15:20 UTC NOAA

LOWG 051520Z 15007KT 110V180 9999 FEW060 27/15 Q1015 NOSIG


Station Type Date Time Source
LOWG Decoded METAR 2020/07/05 15:20 UTC NOAA

Graz-Thalerhof-Flughafen, Austria (LOWG) 47-00N 015-26E 347M
Jul 05, 2020 - 11:20 AM EDT / 2020.07.05 1520 UTC
Wind: from the SSE (150 degrees) at 8 MPH (7 KT) (direction variable):0
Visibility: greater than 7 mile(s):0
Sky conditions: mostly clear
Temperature: 80 F (27 C)
Dew Point: 59 F (15 C)
Relative Humidity: 47%
Pressure (altimeter): 29.97 in. Hg (1015 hPa)
ob: LOWG 051520Z 15007KT 110V180 9999 FEW060 27/15 Q1015 NOSIG
cycle: 15

Station Type Date Time Source
LOWG TAF 2020/07/05 12:21 UTC NOAA

TAF TAF LOWG 051115Z 0512/0612 15006KT 9999 FEW060 TX29/0515Z TN16/0603Z
TEMPO 0611/0612 FEW060 FEW060CB

Example: see airport list